sensor_id;sensor_type;location;lat;lon;timestamp;temperature;humidity
22827;DHT22;11580;52.562;13.418;2022-08-19T00:00:38;23.90;57.30
22827;DHT22;11580;52.562;13.418;2022-08-19T00:03:06;23.90;57.30
22827;DHT22;11580;52.562;13.418;2022-08-19T00:05:34;23.90;57.30
22827;DHT22;11580;52.562;13.418;2022-08-19T00:08:03;23.90;57.40
22827;DHT22;11580;52.562;13.418;2022-08-19T00:10:30;23.90;57.60
22827;DHT22;11580;52.562;13.418;2022-08-19T00:12:59;23.90;57.70
22827;DHT22;11580;52.562;13.418;2022-08-19T00:15:26;23.90;57.80
22827;DHT22;11580;52.562;13.418;2022-08-19T00:17:54;23.90;57.90
22827;DHT22;11580;52.562;13.418;2022-08-19T00:20:22;23.90;58.00
22827;DHT22;11580;52.562;13.418;2022-08-19T00:22:49;23.90;58.20
22827;DHT22;11580;52.562;13.418;2022-08-19T00:25:18;23.90;58.20
22827;DHT22;11580;52.562;13.418;2022-08-19T00:27:46;24.00;58.40
22827;DHT22;11580;52.562;13.418;2022-08-19T00:30:13;24.00;58.60
22827;DHT22;11580;52.562;13.418;2022-08-19T00:32:41;24.00;58.70
22827;DHT22;11580;52.562;13.418;2022-08-19T00:35:09;24.10;58.80
22827;DHT22;11580;52.562;13.418;2022-08-19T00:37:37;24.10;58.80
22827;DHT22;11580;52.562;13.418;2022-08-19T00:40:11;24.10;58.40
22827;DHT22;11580;52.562;13.418;2022-08-19T00:42:41;24.10;58.30
22827;DHT22;11580;52.562;13.418;2022-08-19T00:45:13;24.10;58.10
22827;DHT22;11580;52.562;13.418;2022-08-19T00:47:43;24.10;57.90
22827;DHT22;11580;52.562;13.418;2022-08-19T00:50:13;24.10;58.30
22827;DHT22;11580;52.562;13.418;2022-08-19T00:52:47;24.10;57.70
22827;DHT22;11580;52.562;13.418;2022-08-19T00:55:19;24.10;57.70
22827;DHT22;11580;52.562;13.418;2022-08-19T00:57:52;24.10;57.90
22827;DHT22;11580;52.562;13.418;2022-08-19T01:00:24;24.00;57.90
22827;DHT22;11580;52.562;13.418;2022-08-19T01:02:54;24.00;58.00
22827;DHT22;11580;52.562;13.418;2022-08-19T01:05:24;23.90;58.00
22827;DHT22;11580;52.562;13.418;2022-08-19T01:07:54;23.90;57.90
22827;DHT22;11580;52.562;13.418;2022-08-19T01:10:28;23.90;58.00
22827;DHT22;11580;52.562;13.418;2022-08-19T01:13:01;23.90;58.20
22827;DHT22;11580;52.562;13.418;2022-08-19T01:15:32;23.90;58.90
22827;DHT22;11580;52.562;13.418;2022-08-19T01:18:06;23.80;58.00
22827;DHT22;11580;52.562;13.418;2022-08-19T01:20:34;23.80;58.10
22827;DHT22;11580;52.562;13.418;2022-08-19T01:23:03;23.80;58.00
22827;DHT22;11580;52.562;13.418;2022-08-19T01:25:34;23.70;58.00
22827;DHT22;11580;52.562;13.418;2022-08-19T01:28:06;23.70;58.40
22827;DHT22;11580;52.562;13.418;2022-08-19T01:30:35;23.70;58.30
22827;DHT22;11580;52.562;13.418;2022-08-19T01:33:03;23.70;58.40
22827;DHT22;11580;52.562;13.418;2022-08-19T01:35:32;23.70;58.50
22827;DHT22;11580;52.562;13.418;2022-08-19T01:38:02;23.70;58.40
22827;DHT22;11580;52.562;13.418;2022-08-19T01:40:35;23.70;58.60
22827;DHT22;11580;52.562;13.418;2022-08-19T01:43:06;23.70;58.60
22827;DHT22;11580;52.562;13.418;2022-08-19T01:45:34;23.70;58.70
22827;DHT22;11580;52.562;13.418;2022-08-19T01:48:03;23.70;58.90
22827;DHT22;11580;52.562;13.418;2022-08-19T01:50:32;23.70;58.80
22827;DHT22;11580;52.562;13.418;2022-08-19T01:53:02;23.80;58.80
22827;DHT22;11580;52.562;13.418;2022-08-19T01:55:33;23.80;58.80
22827;DHT22;11580;52.562;13.418;2022-08-19T01:58:05;23.80;59.00
22827;DHT22;11580;52.562;13.418;2022-08-19T02:00:34;23.80;59.10
22827;DHT22;11580;52.562;13.418;2022-08-19T02:03:02;23.80;59.20
22827;DHT22;11580;52.562;13.418;2022-08-19T02:05:30;23.80;59.30
22827;DHT22;11580;52.562;13.418;2022-08-19T02:07:57;23.80;59.20
22827;DHT22;11580;52.562;13.418;2022-08-19T02:10:26;23.80;58.80
22827;DHT22;11580;52.562;13.418;2022-08-19T02:12:53;23.80;58.70
22827;DHT22;11580;52.562;13.418;2022-08-19T02:15:20;23.80;58.30
22827;DHT22;11580;52.562;13.418;2022-08-19T02:17:48;23.80;58.10
22827;DHT22;11580;52.562;13.418;2022-08-19T02:20:16;23.80;58.10
22827;DHT22;11580;52.562;13.418;2022-08-19T02:22:43;23.80;58.10
22827;DHT22;11580;52.562;13.418;2022-08-19T02:25:11;23.80;58.10
22827;DHT22;11580;52.562;13.418;2022-08-19T02:27:42;23.70;58.00
22827;DHT22;11580;52.562;13.418;2022-08-19T02:30:15;23.70;58.00
22827;DHT22;11580;52.562;13.418;2022-08-19T02:32:44;23.70;58.30
22827;DHT22;11580;52.562;13.418;2022-08-19T02:35:12;23.60;57.90
22827;DHT22;11580;52.562;13.418;2022-08-19T02:37:40;23.60;57.90
22827;DHT22;11580;52.562;13.418;2022-08-19T02:40:26;23.60;57.90
22827;DHT22;11580;52.562;13.418;2022-08-19T02:42:55;23.50;57.80
22827;DHT22;11580;52.562;13.418;2022-08-19T02:45:23;23.50;58.10
22827;DHT22;11580;52.562;13.418;2022-08-19T02:47:50;23.40;58.10
22827;DHT22;11580;52.562;13.418;2022-08-19T02:50:17;23.40;58.20
22827;DHT22;11580;52.562;13.418;2022-08-19T02:52:44;23.40;58.40
22827;DHT22;11580;52.562;13.418;2022-08-19T02:55:12;23.40;58.60
22827;DHT22;11580;52.562;13.418;2022-08-19T02:57:39;23.40;58.70
22827;DHT22;11580;52.562;13.418;2022-08-19T03:00:09;23.40;58.50
22827;DHT22;11580;52.562;13.418;2022-08-19T03:02:38;23.40;58.70
22827;DHT22;11580;52.562;13.418;2022-08-19T03:05:07;23.40;58.70
22827;DHT22;11580;52.562;13.418;2022-08-19T03:07:36;23.30;58.60
22827;DHT22;11580;52.562;13.418;2022-08-19T03:10:05;23.30;58.60
22827;DHT22;11580;52.562;13.418;2022-08-19T03:12:35;23.30;58.60
22827;DHT22;11580;52.562;13.418;2022-08-19T03:15:05;23.30;58.60
22827;DHT22;11580;52.562;13.418;2022-08-19T03:17:35;23.30;58.50
22827;DHT22;11580;52.562;13.418;2022-08-19T03:20:04;23.30;58.50
22827;DHT22;11580;52.562;13.418;2022-08-19T03:22:32;23.30;58.60
22827;DHT22;11580;52.562;13.418;2022-08-19T03:24:59;23.30;58.50
22827;DHT22;11580;52.562;13.418;2022-08-19T03:27:26;23.20;58.40
22827;DHT22;11580;52.562;13.418;2022-08-19T03:29:54;23.20;58.40
22827;DHT22;11580;52.562;13.418;2022-08-19T03:32:22;23.20;58.50
22827;DHT22;11580;52.562;13.418;2022-08-19T03:34:51;23.20;58.60
22827;DHT22;11580;52.562;13.418;2022-08-19T03:37:18;23.20;58.80
22827;DHT22;11580;52.562;13.418;2022-08-19T03:39:45;23.10;58.60
22827;DHT22;11580;52.562;13.418;2022-08-19T03:42:12;23.10;58.70
22827;DHT22;11580;52.562;13.418;2022-08-19T03:44:40;23.10;58.60
22827;DHT22;11580;52.562;13.418;2022-08-19T03:47:10;23.10;58.70
22827;DHT22;11580;52.562;13.418;2022-08-19T03:49:41;23.10;58.70
22827;DHT22;11580;52.562;13.418;2022-08-19T03:52:10;23.10;58.70
22827;DHT22;11580;52.562;13.418;2022-08-19T03:54:38;23.10;58.90
22827;DHT22;11580;52.562;13.418;2022-08-19T03:57:05;23.10;58.90
22827;DHT22;11580;52.562;13.418;2022-08-19T03:59:36;23.10;58.90
22827;DHT22;11580;52.562;13.418;2022-08-19T04:02:08;23.10;58.90
22827;DHT22;11580;52.562;13.418;2022-08-19T04:04:38;23.10;59.00
22827;DHT22;11580;52.562;13.418;2022-08-19T04:07:07;23.00;59.10
22827;DHT22;11580;52.562;13.418;2022-08-19T04:09:38;23.00;59.10
22827;DHT22;11580;52.562;13.418;2022-08-19T04:12:06;23.00;59.20
22827;DHT22;11580;52.562;13.418;2022-08-19T04:14:34;23.10;59.30
22827;DHT22;11580;52.562;13.418;2022-08-19T04:17:02;23.10;59.40
22827;DHT22;11580;52.562;13.418;2022-08-19T04:19:32;23.10;59.40
22827;DHT22;11580;52.562;13.418;2022-08-19T04:21:59;23.10;59.40
22827;DHT22;11580;52.562;13.418;2022-08-19T04:24:28;23.10;59.40
22827;DHT22;11580;52.562;13.418;2022-08-19T04:26:56;23.10;59.50
22827;DHT22;11580;52.562;13.418;2022-08-19T04:29:25;23.10;59.50
22827;DHT22;11580;52.562;13.418;2022-08-19T04:31:54;23.10;59.50
22827;DHT22;11580;52.562;13.418;2022-08-19T04:34:25;23.10;59.30
22827;DHT22;11580;52.562;13.418;2022-08-19T04:36:56;23.20;59.50
22827;DHT22;11580;52.562;13.418;2022-08-19T04:39:28;23.20;59.60
22827;DHT22;11580;52.562;13.418;2022-08-19T04:42:11;23.20;59.70
22827;DHT22;11580;52.562;13.418;2022-08-19T04:44:57;23.20;59.70
22827;DHT22;11580;52.562;13.418;2022-08-19T04:47:24;23.20;59.70
22827;DHT22;11580;52.562;13.418;2022-08-19T04:49:52;23.20;59.70
22827;DHT22;11580;52.562;13.418;2022-08-19T04:52:19;23.30;59.90
22827;DHT22;11580;52.562;13.418;2022-08-19T04:54:47;23.20;59.80
22827;DHT22;11580;52.562;13.418;2022-08-19T04:57:14;23.30;60.00
22827;DHT22;11580;52.562;13.418;2022-08-19T04:59:42;23.30;59.90
22827;DHT22;11580;52.562;13.418;2022-08-19T05:02:09;23.30;59.90
22827;DHT22;11580;52.562;13.418;2022-08-19T05:04:38;23.30;60.70
22827;DHT22;11580;52.562;13.418;2022-08-19T05:07:06;23.30;60.00
22827;DHT22;11580;52.562;13.418;2022-08-19T05:09:35;23.30;60.20
22827;DHT22;11580;52.562;13.418;2022-08-19T05:12:05;23.40;60.40
22827;DHT22;11580;52.562;13.418;2022-08-19T05:14:32;23.40;61.40
22827;DHT22;11580;52.562;13.418;2022-08-19T05:17:02;23.40;60.90
22827;DHT22;11580;52.562;13.418;2022-08-19T05:19:29;23.50;61.10
22827;DHT22;11580;52.562;13.418;2022-08-19T05:22:14;23.50;61.20
22827;DHT22;11580;52.562;13.418;2022-08-19T05:25:03;23.60;61.40
22827;DHT22;11580;52.562;13.418;2022-08-19T05:27:33;23.70;61.60
22827;DHT22;11580;52.562;13.418;2022-08-19T05:30:01;23.70;61.70
22827;DHT22;11580;52.562;13.418;2022-08-19T05:32:28;23.80;62.00
22827;DHT22;11580;52.562;13.418;2022-08-19T05:34:56;23.90;62.20
22827;DHT22;11580;52.562;13.418;2022-08-19T05:37:23;23.90;62.40
22827;DHT22;11580;52.562;13.418;2022-08-19T05:39:52;24.00;62.40
22827;DHT22;11580;52.562;13.418;2022-08-19T05:42:21;24.10;62.20
22827;DHT22;11580;52.562;13.418;2022-08-19T05:44:50;24.10;62.00
22827;DHT22;11580;52.562;13.418;2022-08-19T05:47:18;24.20;62.00
22827;DHT22;11580;52.562;13.418;2022-08-19T05:49:46;24.30;62.10
22827;DHT22;11580;52.562;13.418;2022-08-19T05:52:15;24.30;61.80
22827;DHT22;11580;52.562;13.418;2022-08-19T05:54:43;24.40;61.70
22827;DHT22;11580;52.562;13.418;2022-08-19T05:57:13;24.40;61.40
22827;DHT22;11580;52.562;13.418;2022-08-19T05:59:41;24.40;61.30
22827;DHT22;11580;52.562;13.418;2022-08-19T06:02:12;24.40;61.50
22827;DHT22;11580;52.562;13.418;2022-08-19T06:04:40;24.50;62.10
22827;DHT22;11580;52.562;13.418;2022-08-19T06:07:08;24.50;62.40
22827;DHT22;11580;52.562;13.418;2022-08-19T06:09:36;24.60;62.40
22827;DHT22;11580;52.562;13.418;2022-08-19T06:12:03;24.60;62.60
22827;DHT22;11580;52.562;13.418;2022-08-19T06:14:33;24.70;62.70
22827;DHT22;11580;52.562;13.418;2022-08-19T06:17:02;24.80;62.80
22827;DHT22;11580;52.562;13.418;2022-08-19T06:19:31;24.80;62.70
22827;DHT22;11580;52.562;13.418;2022-08-19T06:22:00;24.90;62.50
22827;DHT22;11580;52.562;13.418;2022-08-19T06:24:29;25.00;62.40
22827;DHT22;11580;52.562;13.418;2022-08-19T06:26:58;25.00;62.40
22827;DHT22;11580;52.562;13.418;2022-08-19T06:29:27;25.10;62.80
22827;DHT22;11580;52.562;13.418;2022-08-19T06:31:57;25.10;61.80
22827;DHT22;11580;52.562;13.418;2022-08-19T06:34:28;25.10;61.90
22827;DHT22;11580;52.562;13.418;2022-08-19T06:37:00;25.20;61.90
22827;DHT22;11580;52.562;13.418;2022-08-19T06:39:30;25.20;62.20
22827;DHT22;11580;52.562;13.418;2022-08-19T06:42:01;25.30;62.60
22827;DHT22;11580;52.562;13.418;2022-08-19T06:44:37;25.30;62.90
22827;DHT22;11580;52.562;13.418;2022-08-19T06:47:07;25.40;63.00
22827;DHT22;11580;52.562;13.418;2022-08-19T06:49:38;25.40;62.90
22827;DHT22;11580;52.562;13.418;2022-08-19T06:52:05;25.50;63.10
22827;DHT22;11580;52.562;13.418;2022-08-19T06:54:33;25.50;63.00
22827;DHT22;11580;52.562;13.418;2022-08-19T06:57:01;25.60;63.10
22827;DHT22;11580;52.562;13.418;2022-08-19T06:59:29;25.70;63.40
22827;DHT22;11580;52.562;13.418;2022-08-19T07:02:00;25.80;62.90
22827;DHT22;11580;52.562;13.418;2022-08-19T07:04:32;25.80;63.10
22827;DHT22;11580;52.562;13.418;2022-08-19T07:07:03;25.90;62.00
22827;DHT22;11580;52.562;13.418;2022-08-19T07:09:33;25.90;61.90
22827;DHT22;11580;52.562;13.418;2022-08-19T07:12:03;25.80;62.30
22827;DHT22;11580;52.562;13.418;2022-08-19T07:14:33;26.00;62.50
22827;DHT22;11580;52.562;13.418;2022-08-19T07:17:05;26.00;62.50
22827;DHT22;11580;52.562;13.418;2022-08-19T07:19:35;26.10;62.40
22827;DHT22;11580;52.562;13.418;2022-08-19T07:22:07;26.10;62.50
22827;DHT22;11580;52.562;13.418;2022-08-19T07:24:35;26.20;62.10
22827;DHT22;11580;52.562;13.418;2022-08-19T07:27:05;26.20;62.00
22827;DHT22;11580;52.562;13.418;2022-08-19T07:29:35;26.20;62.10
22827;DHT22;11580;52.562;13.418;2022-08-19T07:32:04;26.20;62.30
22827;DHT22;11580;52.562;13.418;2022-08-19T07:34:34;26.30;62.50
22827;DHT22;11580;52.562;13.418;2022-08-19T07:37:05;26.30;62.20
22827;DHT22;11580;52.562;13.418;2022-08-19T07:39:35;26.30;62.10
22827;DHT22;11580;52.562;13.418;2022-08-19T07:42:07;26.30;61.80
22827;DHT22;11580;52.562;13.418;2022-08-19T07:44:36;26.40;61.60
22827;DHT22;11580;52.562;13.418;2022-08-19T07:47:04;26.30;61.60
22827;DHT22;11580;52.562;13.418;2022-08-19T07:49:32;26.30;61.60
22827;DHT22;11580;52.562;13.418;2022-08-19T07:52:02;26.40;61.70
22827;DHT22;11580;52.562;13.418;2022-08-19T07:54:35;26.40;61.50
22827;DHT22;11580;52.562;13.418;2022-08-19T07:57:04;26.40;61.60
22827;DHT22;11580;52.562;13.418;2022-08-19T07:59:33;26.40;62.00
22827;DHT22;11580;52.562;13.418;2022-08-19T08:02:01;26.40;62.10
22827;DHT22;11580;52.562;13.418;2022-08-19T08:04:29;26.50;63.00
22827;DHT22;11580;52.562;13.418;2022-08-19T08:07:14;26.50;61.90
22827;DHT22;11580;52.562;13.418;2022-08-19T08:10:07;26.50;62.30
22827;DHT22;11580;52.562;13.418;2022-08-19T08:12:37;26.50;62.00
22827;DHT22;11580;52.562;13.418;2022-08-19T08:15:09;26.60;62.40
22827;DHT22;11580;52.562;13.418;2022-08-19T08:17:42;26.70;62.90
22827;DHT22;11580;52.562;13.418;2022-08-19T08:20:10;26.70;63.60
22827;DHT22;11580;52.562;13.418;2022-08-19T08:22:43;26.80;63.80
22827;DHT22;11580;52.562;13.418;2022-08-19T08:25:30;26.80;63.10
22827;DHT22;11580;52.562;13.418;2022-08-19T08:27:58;26.90;63.20
22827;DHT22;11580;52.562;13.418;2022-08-19T08:30:27;27.00;64.20
22827;DHT22;11580;52.562;13.418;2022-08-19T08:32:56;27.10;63.30
22827;DHT22;11580;52.562;13.418;2022-08-19T08:35:24;27.10;63.10
22827;DHT22;11580;52.562;13.418;2022-08-19T08:37:52;27.20;62.70
22827;DHT22;11580;52.562;13.418;2022-08-19T08:40:23;27.20;62.40
22827;DHT22;11580;52.562;13.418;2022-08-19T08:42:59;27.20;62.40
22827;DHT22;11580;52.562;13.418;2022-08-19T08:45:33;27.30;63.30
22827;DHT22;11580;52.562;13.418;2022-08-19T08:48:10;27.30;63.20
22827;DHT22;11580;52.562;13.418;2022-08-19T08:50:45;27.40;62.60
22827;DHT22;11580;52.562;13.418;2022-08-19T08:53:17;27.50;62.80
22827;DHT22;11580;52.562;13.418;2022-08-19T08:55:46;27.50;62.60
22827;DHT22;11580;52.562;13.418;2022-08-19T08:58:24;27.60;62.40
22827;DHT22;11580;52.562;13.418;2022-08-19T09:00:56;27.60;61.40
22827;DHT22;11580;52.562;13.418;2022-08-19T09:03:26;27.60;62.60
22827;DHT22;11580;52.562;13.418;2022-08-19T09:06:01;27.70;61.80
22827;DHT22;11580;52.562;13.418;2022-08-19T09:08:40;27.80;61.00
22827;DHT22;11580;52.562;13.418;2022-08-19T09:11:19;27.80;60.50
22827;DHT22;11580;52.562;13.418;2022-08-19T09:14:04;27.80;60.00
22827;DHT22;11580;52.562;13.418;2022-08-19T09:16:39;27.80;58.90
22827;DHT22;11580;52.562;13.418;2022-08-19T09:19:07;27.80;59.70
22827;DHT22;11580;52.562;13.418;2022-08-19T09:21:36;27.80;59.40
22827;DHT22;11580;52.562;13.418;2022-08-19T09:24:05;27.80;59.40
22827;DHT22;11580;52.562;13.418;2022-08-19T09:26:33;27.90;59.60
22827;DHT22;11580;52.562;13.418;2022-08-19T09:29:02;27.90;59.80
22827;DHT22;11580;52.562;13.418;2022-08-19T09:31:31;28.00;59.20
22827;DHT22;11580;52.562;13.418;2022-08-19T09:33:59;28.10;60.10
22827;DHT22;11580;52.562;13.418;2022-08-19T09:36:29;28.30;60.40
22827;DHT22;11580;52.562;13.418;2022-08-19T09:39:03;28.50;60.20
22827;DHT22;11580;52.562;13.418;2022-08-19T09:41:32;28.70;59.30
22827;DHT22;11580;52.562;13.418;2022-08-19T09:43:59;28.80;59.10
22827;DHT22;11580;52.562;13.418;2022-08-19T09:46:28;29.00;58.70
22827;DHT22;11580;52.562;13.418;2022-08-19T09:48:58;29.10;56.70
22827;DHT22;11580;52.562;13.418;2022-08-19T09:51:27;29.20;57.00
22827;DHT22;11580;52.562;13.418;2022-08-19T09:53:59;29.40;57.10
22827;DHT22;11580;52.562;13.418;2022-08-19T09:56:29;29.50;54.90
22827;DHT22;11580;52.562;13.418;2022-08-19T09:58:58;29.60;56.10
22827;DHT22;11580;52.562;13.418;2022-08-19T10:01:31;29.70;55.70
22827;DHT22;11580;52.562;13.418;2022-08-19T10:04:00;29.70;53.40
22827;DHT22;11580;52.562;13.418;2022-08-19T10:06:29;29.90;55.40
22827;DHT22;11580;52.562;13.418;2022-08-19T10:08:58;29.90;53.60
22827;DHT22;11580;52.562;13.418;2022-08-19T10:11:26;29.90;55.00
22827;DHT22;11580;52.562;13.418;2022-08-19T10:13:54;29.90;53.90
22827;DHT22;11580;52.562;13.418;2022-08-19T10:16:22;29.90;53.60
22827;DHT22;11580;52.562;13.418;2022-08-19T10:18:53;29.90;52.90
22827;DHT22;11580;52.562;13.418;2022-08-19T10:21:24;29.80;52.10
22827;DHT22;11580;52.562;13.418;2022-08-19T10:23:54;29.70;51.90
22827;DHT22;11580;52.562;13.418;2022-08-19T10:26:25;29.60;52.80
22827;DHT22;11580;52.562;13.418;2022-08-19T10:28:54;29.60;52.30
22827;DHT22;11580;52.562;13.418;2022-08-19T10:31:25;29.50;53.00
22827;DHT22;11580;52.562;13.418;2022-08-19T10:33:56;29.50;52.50
22827;DHT22;11580;52.562;13.418;2022-08-19T10:36:26;29.40;52.20
22827;DHT22;11580;52.562;13.418;2022-08-19T10:38:57;29.30;52.80
22827;DHT22;11580;52.562;13.418;2022-08-19T10:41:28;29.30;52.40
22827;DHT22;11580;52.562;13.418;2022-08-19T10:43:59;29.30;52.50
22827;DHT22;11580;52.562;13.418;2022-08-19T10:46:28;29.20;52.60
22827;DHT22;11580;52.562;13.418;2022-08-19T10:49:00;29.20;52.80
22827;DHT22;11580;52.562;13.418;2022-08-19T10:51:29;29.20;51.80
22827;DHT22;11580;52.562;13.418;2022-08-19T10:54:14;29.30;53.20
22827;DHT22;11580;52.562;13.418;2022-08-19T10:56:42;29.30;53.10
22827;DHT22;11580;52.562;13.418;2022-08-19T10:59:19;29.40;52.80
22827;DHT22;11580;52.562;13.418;2022-08-19T11:01:49;29.40;51.70
22827;DHT22;11580;52.562;13.418;2022-08-19T11:04:19;29.50;51.80
22827;DHT22;11580;52.562;13.418;2022-08-19T11:06:48;29.50;50.70
22827;DHT22;11580;52.562;13.418;2022-08-19T11:09:17;29.40;51.20
22827;DHT22;11580;52.562;13.418;2022-08-19T11:11:46;29.50;50.70
22827;DHT22;11580;52.562;13.418;2022-08-19T11:14:15;29.40;51.40
22827;DHT22;11580;52.562;13.418;2022-08-19T11:16:44;29.40;50.00
22827;DHT22;11580;52.562;13.418;2022-08-19T11:19:11;29.40;50.00
22827;DHT22;11580;52.562;13.418;2022-08-19T11:21:44;29.30;50.40
22827;DHT22;11580;52.562;13.418;2022-08-19T11:24:16;29.30;49.90
22827;DHT22;11580;52.562;13.418;2022-08-19T11:26:47;29.30;49.90
22827;DHT22;11580;52.562;13.418;2022-08-19T11:29:17;29.20;49.90
22827;DHT22;11580;52.562;13.418;2022-08-19T11:31:48;29.20;49.90
22827;DHT22;11580;52.562;13.418;2022-08-19T11:34:18;29.20;49.40
22827;DHT22;11580;52.562;13.418;2022-08-19T11:36:50;29.10;49.40
22827;DHT22;11580;52.562;13.418;2022-08-19T11:39:20;29.00;49.00
22827;DHT22;11580;52.562;13.418;2022-08-19T11:41:48;29.00;49.70
22827;DHT22;11580;52.562;13.418;2022-08-19T11:44:16;28.90;49.90
22827;DHT22;11580;52.562;13.418;2022-08-19T11:46:44;28.80;49.70
22827;DHT22;11580;52.562;13.418;2022-08-19T11:49:13;28.70;49.90
22827;DHT22;11580;52.562;13.418;2022-08-19T11:51:41;28.70;50.00
22827;DHT22;11580;52.562;13.418;2022-08-19T11:54:11;28.60;50.00
22827;DHT22;11580;52.562;13.418;2022-08-19T11:56:40;28.60;49.70
22827;DHT22;11580;52.562;13.418;2022-08-19T11:59:09;28.60;50.00
22827;DHT22;11580;52.562;13.418;2022-08-19T12:01:37;28.60;50.20
22827;DHT22;11580;52.562;13.418;2022-08-19T12:04:06;28.50;50.30
22827;DHT22;11580;52.562;13.418;2022-08-19T12:06:33;28.60;50.90
22827;DHT22;11580;52.562;13.418;2022-08-19T12:09:05;28.60;51.20
22827;DHT22;11580;52.562;13.418;2022-08-19T12:11:35;28.80;50.50
22827;DHT22;11580;52.562;13.418;2022-08-19T12:14:04;29.00;50.10
22827;DHT22;11580;52.562;13.418;2022-08-19T12:16:32;29.10;50.00
22827;DHT22;11580;52.562;13.418;2022-08-19T12:19:00;29.20;49.00
22827;DHT22;11580;52.562;13.418;2022-08-19T12:21:31;29.30;48.70
22827;DHT22;11580;52.562;13.418;2022-08-19T12:24:02;29.50;47.80
22827;DHT22;11580;52.562;13.418;2022-08-19T12:26:35;29.50;47.20
22827;DHT22;11580;52.562;13.418;2022-08-19T12:29:02;29.60;47.20
22827;DHT22;11580;52.562;13.418;2022-08-19T12:31:30;29.60;46.50
22827;DHT22;11580;52.562;13.418;2022-08-19T12:33:57;29.70;46.80
22827;DHT22;11580;52.562;13.418;2022-08-19T12:36:25;29.70;45.80
22827;DHT22;11580;52.562;13.418;2022-08-19T12:38:53;29.80;45.70
22827;DHT22;11580;52.562;13.418;2022-08-19T12:41:21;29.80;44.90
22827;DHT22;11580;52.562;13.418;2022-08-19T12:43:49;29.80;44.90
22827;DHT22;11580;52.562;13.418;2022-08-19T12:46:18;29.80;44.70
22827;DHT22;11580;52.562;13.418;2022-08-19T12:48:46;29.80;45.20
22827;DHT22;11580;52.562;13.418;2022-08-19T12:51:16;29.80;45.10
22827;DHT22;11580;52.562;13.418;2022-08-19T12:53:46;29.80;44.70
22827;DHT22;11580;52.562;13.418;2022-08-19T12:56:15;29.80;44.50
22827;DHT22;11580;52.562;13.418;2022-08-19T12:58:43;29.80;45.70
22827;DHT22;11580;52.562;13.418;2022-08-19T13:01:14;29.80;44.00
22827;DHT22;11580;52.562;13.418;2022-08-19T13:03:45;29.90;44.10
22827;DHT22;11580;52.562;13.418;2022-08-19T13:06:13;29.90;44.90
22827;DHT22;11580;52.562;13.418;2022-08-19T13:08:41;30.00;44.50
22827;DHT22;11580;52.562;13.418;2022-08-19T13:11:10;30.00;44.50
22827;DHT22;11580;52.562;13.418;2022-08-19T13:13:39;30.10;44.20
22827;DHT22;11580;52.562;13.418;2022-08-19T13:16:09;30.10;44.90
22827;DHT22;11580;52.562;13.418;2022-08-19T13:18:40;30.20;44.30
22827;DHT22;11580;52.562;13.418;2022-08-19T13:21:10;30.30;44.40
22827;DHT22;11580;52.562;13.418;2022-08-19T13:23:39;30.30;43.60
22827;DHT22;11580;52.562;13.418;2022-08-19T13:26:08;30.40;43.60
22827;DHT22;11580;52.562;13.418;2022-08-19T13:28:37;30.40;43.80
22827;DHT22;11580;52.562;13.418;2022-08-19T13:31:29;30.40;43.60
22827;DHT22;11580;52.562;13.418;2022-08-19T13:34:16;30.50;42.90
22827;DHT22;11580;52.562;13.418;2022-08-19T13:36:45;30.50;42.80
22827;DHT22;11580;52.562;13.418;2022-08-19T13:39:12;30.50;42.90
22827;DHT22;11580;52.562;13.418;2022-08-19T13:41:44;30.50;43.30
22827;DHT22;11580;52.562;13.418;2022-08-19T13:44:14;30.50;41.80
22827;DHT22;11580;52.562;13.418;2022-08-19T13:46:45;30.40;42.70
22827;DHT22;11580;52.562;13.418;2022-08-19T13:49:14;30.40;42.30
22827;DHT22;11580;52.562;13.418;2022-08-19T13:51:42;30.30;42.50
22827;DHT22;11580;52.562;13.418;2022-08-19T13:54:10;30.30;43.00
22827;DHT22;11580;52.562;13.418;2022-08-19T13:56:41;30.20;42.70
22827;DHT22;11580;52.562;13.418;2022-08-19T13:59:10;30.20;42.20
22827;DHT22;11580;52.562;13.418;2022-08-19T14:01:38;30.20;43.40
22827;DHT22;11580;52.562;13.418;2022-08-19T14:04:08;30.10;42.80
22827;DHT22;11580;52.562;13.418;2022-08-19T14:06:35;30.20;41.90
22827;DHT22;11580;52.562;13.418;2022-08-19T14:09:03;30.10;42.20
22827;DHT22;11580;52.562;13.418;2022-08-19T14:11:31;30.10;42.80
22827;DHT22;11580;52.562;13.418;2022-08-19T14:13:58;30.10;43.30
22827;DHT22;11580;52.562;13.418;2022-08-19T14:16:25;30.00;43.30
22827;DHT22;11580;52.562;13.418;2022-08-19T14:18:55;30.00;43.40
22827;DHT22;11580;52.562;13.418;2022-08-19T14:21:24;30.00;43.20
22827;DHT22;11580;52.562;13.418;2022-08-19T14:23:52;30.00;43.00
22827;DHT22;11580;52.562;13.418;2022-08-19T14:26:21;30.00;43.20
22827;DHT22;11580;52.562;13.418;2022-08-19T14:28:49;30.00;42.70
22827;DHT22;11580;52.562;13.418;2022-08-19T14:31:18;30.00;42.70
22827;DHT22;11580;52.562;13.418;2022-08-19T14:33:47;30.00;42.10
22827;DHT22;11580;52.562;13.418;2022-08-19T14:36:16;30.00;42.20
22827;DHT22;11580;52.562;13.418;2022-08-19T14:38:45;30.00;41.90
22827;DHT22;11580;52.562;13.418;2022-08-19T14:41:14;29.90;40.70
22827;DHT22;11580;52.562;13.418;2022-08-19T14:43:43;29.80;40.80
22827;DHT22;11580;52.562;13.418;2022-08-19T14:46:12;29.70;41.50
22827;DHT22;11580;52.562;13.418;2022-08-19T14:48:41;29.60;41.60
22827;DHT22;11580;52.562;13.418;2022-08-19T14:51:08;29.50;42.00
22827;DHT22;11580;52.562;13.418;2022-08-19T14:53:36;29.50;42.20
22827;DHT22;11580;52.562;13.418;2022-08-19T14:56:09;29.40;42.00
22827;DHT22;11580;52.562;13.418;2022-08-19T14:58:38;29.30;41.50
22827;DHT22;11580;52.562;13.418;2022-08-19T15:01:08;29.20;42.10
22827;DHT22;11580;52.562;13.418;2022-08-19T15:03:36;29.10;42.10
22827;DHT22;11580;52.562;13.418;2022-08-19T15:06:05;29.00;42.30
22827;DHT22;11580;52.562;13.418;2022-08-19T15:08:35;28.90;42.50
22827;DHT22;11580;52.562;13.418;2022-08-19T15:11:09;28.80;42.60
22827;DHT22;11580;52.562;13.418;2022-08-19T15:13:38;28.70;43.10
22827;DHT22;11580;52.562;13.418;2022-08-19T15:16:06;28.70;42.90
22827;DHT22;11580;52.562;13.418;2022-08-19T15:18:33;28.60;42.60
22827;DHT22;11580;52.562;13.418;2022-08-19T15:21:01;28.60;43.20
22827;DHT22;11580;52.562;13.418;2022-08-19T15:23:30;28.50;43.20
22827;DHT22;11580;52.562;13.418;2022-08-19T15:25:57;28.40;43.10
22827;DHT22;11580;52.562;13.418;2022-08-19T15:28:25;28.30;43.10
22827;DHT22;11580;52.562;13.418;2022-08-19T15:30:53;28.30;43.00